createdAt,value
2023-02-04T00:03:09.392Z,1019.737
2023-02-04T00:23:07.668Z,1019.892
2023-02-04T00:43:07.765Z,1020.197
2023-02-04T01:03:08.794Z,1020.669
2023-02-04T01:23:07.589Z,1020.865
2023-02-04T01:43:07.355Z,1021.186
2023-02-04T02:03:08.204Z,1021.224
2023-02-04T02:23:07.168Z,1021.305
2023-02-04T02:43:08.122Z,1021.757
2023-02-04T03:03:08.907Z,1021.895
2023-02-04T03:23:07.740Z,1021.972
2023-02-04T03:43:07.523Z,1022.288
2023-02-04T04:03:08.623Z,1022.45
2023-02-04T04:23:07.595Z,1022.847
2023-02-04T04:43:07.444Z,1023.059
2023-02-04T05:03:08.570Z,1023.297
2023-02-04T05:23:07.483Z,1023.617
2023-02-04T05:43:07.798Z,1023.811
2023-02-04T06:03:08.794Z,1024.236
2023-02-04T06:23:07.551Z,1024.427
2023-02-04T06:43:07.601Z,1024.656
2023-02-04T07:03:08.429Z,1024.937
2023-02-04T07:23:07.234Z,1025.136
2023-02-04T07:43:08.151Z,1025.252
2023-02-04T08:03:09.246Z,1025.482
2023-02-04T08:23:08.378Z,1025.651
2023-02-04T08:43:07.351Z,1025.901
2023-02-04T09:03:08.186Z,1026.199
2023-02-04T09:23:08.046Z,1026.341
2023-02-04T09:43:07.955Z,1026.517
2023-02-04T10:03:08.767Z,1026.728
2023-02-04T10:23:07.577Z,1026.78
2023-02-04T10:43:07.402Z,1026.961
2023-02-04T11:03:08.394Z,1027
2023-02-04T11:23:07.300Z,1026.914
2023-02-04T11:43:07.274Z,1027.087
2023-02-04T12:03:08.177Z,1027.132
2023-02-04T12:23:07.949Z,1027.132
2023-02-04T12:43:07.834Z,1027.289
2023-02-04T13:03:08.649Z,1027.456
2023-02-04T13:23:07.384Z,1027.3
2023-02-04T13:43:07.410Z,1027.252
2023-02-04T14:03:08.358Z,1027.391
2023-02-04T14:23:07.321Z,1027.424
2023-02-04T14:43:07.343Z,1027.336
2023-02-04T15:03:08.395Z,1027.268
2023-02-04T15:23:07.218Z,1027.483
2023-02-04T15:43:07.139Z,1027.54
2023-02-04T16:03:08.913Z,1027.641
2023-02-04T16:23:07.727Z,1027.765
2023-02-04T16:43:07.694Z,1027.765
2023-02-04T17:03:09.260Z,1027.918
2023-02-04T17:23:07.333Z,1028.075
2023-02-04T17:43:07.579Z,1028.079
2023-02-04T18:03:08.775Z,1027.964
2023-02-04T18:23:07.924Z,1028.072
2023-02-04T18:43:07.997Z,1028.123
2023-02-04T19:03:09.095Z,1028.289
2023-02-04T19:23:08.018Z,1028.453
2023-02-04T19:43:08.311Z,1028.407
2023-02-04T20:03:08.243Z,1028.421
2023-02-04T20:23:07.306Z,1028.367
2023-02-04T20:43:07.450Z,1028.281
2023-02-04T21:03:08.333Z,1028.073
2023-02-04T21:23:07.309Z,1027.885
2023-02-04T21:43:07.416Z,1028.122
2023-02-04T22:03:08.461Z,1027.967
2023-02-04T22:23:07.398Z,1028.069
2023-02-04T22:43:07.656Z,1027.65
2023-02-04T23:03:08.379Z,1027.762
2023-02-04T23:23:08.139Z,1027.917
2023-02-04T23:43:11.207Z,1027.763
